SAWG/RGL METAR and TAF weather

Enter ICAO airport designator
Station Type Date Time Source
SAWG METAR 2021/09/16 10:00 UTC NOAA

SAWG 161000Z 34008KT 9999 FEW030 OVC080 01/M04 Q1009


Station Type Date Time Source
SAWG Decoded METAR 2021/09/16 10:00 UTC NOAA

Rio Gallegos Aerodrome, Argentina (SAWG) 51-37S 069-17W 19M
Sep 16, 2021 - 06:00 AM EDT / 2021.09.16 1000 UTC
Wind: from the NNW (340 degrees) at 9 MPH (8 KT):0
Visibility: greater than 7 mile(s):0
Sky conditions: overcast
Temperature: 33 F (1 C)
Windchill: 24 F (-4 C):1
Dew Point: 24 F (-4 C)
Relative Humidity: 69%
Pressure (altimeter): 29.80 in. Hg (1009 hPa)
ob: SAWG 161000Z 34008KT 9999 FEW030 OVC080 01/M04 Q1009
cycle: 10

Station Type Date Time Source
SAWG TAF 2021/09/16 06:15 UTC NOAA

TAF
AMD SAWG 160515Z 1606/1706 22005KT 9999 FEW020 OVC200 TX08/1619Z TNM03/1609Z
BECMG 1607/1609 36005KT 8000 BKN020 BKN030
BECMG 1612/1615 02015G25KT 5000 RA BKN015 OVC030
TEMPO 1619/1700 VRB03KT 8000 SCT025
BECMG 1700/1702 VRB03KT 2000 -SHSN BR OVC010

Example: see airport list